createdAt,value
2018-08-17T00:00:50.588Z,0.00
2018-08-17T00:01:50.470Z,0.00
2018-08-17T00:02:50.498Z,0.00
2018-08-17T00:03:50.320Z,0.00
2018-08-17T00:04:50.254Z,0.00
2018-08-17T00:05:50.172Z,0.00
2018-08-17T00:06:50.217Z,0.00
2018-08-17T00:07:50.028Z,0.00
2018-08-17T00:08:50.025Z,0.00
2018-08-17T00:09:49.877Z,0.00
2018-08-17T00:10:49.831Z,0.00
2018-08-17T00:11:49.732Z,0.00
2018-08-17T00:12:49.743Z,0.00
2018-08-17T00:13:49.581Z,0.00
2018-08-17T00:14:49.555Z,0.00
2018-08-17T00:15:49.431Z,0.00
2018-08-17T00:16:49.463Z,0.00
2018-08-17T00:17:49.296Z,0.00
2018-08-17T00:18:49.273Z,0.00
2018-08-17T00:19:49.134Z,0.00
2018-08-17T00:20:49.082Z,0.00
2018-08-17T00:21:48.988Z,0.00
2018-08-17T00:22:48.992Z,0.00
2018-08-17T00:23:48.857Z,0.00
2018-08-17T00:24:48.800Z,0.00
2018-08-17T00:25:48.690Z,0.00
2018-08-17T00:26:48.710Z,0.00
2018-08-17T00:27:48.541Z,0.00
2018-08-17T00:28:48.520Z,0.00
2018-08-17T00:29:48.396Z,0.00
2018-08-17T00:30:48.431Z,0.00
2018-08-17T00:31:48.244Z,0.00
2018-08-17T00:32:48.239Z,0.00
2018-08-17T00:33:48.096Z,0.00
2018-08-17T00:34:48.048Z,0.00
2018-08-17T00:35:47.946Z,0.00
2018-08-17T00:36:47.956Z,0.00
2018-08-17T00:37:47.802Z,0.00
2018-08-17T00:38:47.764Z,0.00
2018-08-17T00:39:47.648Z,0.00
2018-08-17T00:40:47.581Z,0.00
2018-08-17T00:41:47.499Z,0.00
2018-08-17T00:42:47.485Z,0.00
2018-08-17T00:43:47.350Z,0.00
2018-08-17T00:44:47.296Z,0.00
2018-08-17T00:45:47.204Z,0.00
2018-08-17T00:46:47.206Z,0.00
2018-08-17T00:47:47.052Z,0.00
2018-08-17T00:48:47.015Z,0.00
2018-08-17T00:49:46.904Z,0.00
2018-08-17T00:50:46.924Z,0.00
2018-08-17T00:51:46.755Z,0.00
2018-08-17T00:52:46.733Z,0.00
2018-08-17T00:53:46.612Z,0.00
2018-08-17T00:54:46.646Z,0.00
2018-08-17T00:55:46.458Z,0.00
2018-08-17T00:56:46.458Z,0.00
2018-08-17T00:57:46.305Z,0.00
2018-08-17T00:58:46.264Z,0.00
2018-08-17T00:59:46.160Z,0.00
2018-08-17T01:00:46.171Z,0.00
2018-08-17T01:01:46.009Z,0.00
2018-08-17T01:02:45.980Z,0.00
2018-08-17T01:03:45.859Z,0.00
2018-08-17T01:04:45.893Z,0.00
2018-08-17T01:05:45.709Z,0.00
2018-08-17T01:06:45.702Z,0.00
2018-08-17T01:07:45.564Z,0.00
2018-08-17T01:08:45.509Z,0.00
2018-08-17T01:09:45.411Z,0.00
2018-08-17T01:10:45.419Z,0.00
2018-08-17T01:11:45.264Z,0.00
2018-08-17T01:12:45.193Z,0.00
2018-08-17T01:13:45.114Z,0.00
2018-08-17T01:14:45.139Z,0.00
2018-08-17T01:15:44.958Z,0.00
2018-08-17T01:16:44.948Z,0.00
2018-08-17T01:17:44.822Z,0.00
2018-08-17T01:18:44.758Z,0.00
2018-08-17T01:19:44.663Z,0.00
2018-08-17T01:20:44.667Z,0.00
2018-08-17T01:21:44.515Z,0.00
2018-08-17T01:22:44.475Z,0.00
2018-08-17T01:23:44.373Z,0.00
2018-08-17T01:24:44.386Z,0.00
2018-08-17T01:25:44.212Z,0.00
2018-08-17T01:26:44.196Z,0.00
2018-08-17T01:27:44.067Z,0.00
2018-08-17T01:28:45.028Z,0.00
2018-08-17T01:29:43.919Z,0.00
2018-08-17T01:30:48.933Z,0.00
2018-08-17T01:31:43.765Z,0.00
2018-08-17T01:32:44.748Z,0.00
2018-08-17T01:33:43.625Z,0.00
2018-08-17T01:34:44.652Z,0.00
2018-08-17T01:35:43.467Z,0.00
2018-08-17T01:36:43.440Z,0.00
2018-08-17T01:37:43.317Z,0.00
2018-08-17T01:38:43.253Z,0.00
2018-08-17T01:39:43.170Z,0.00
2018-08-17T01:40:43.165Z,0.00
2018-08-17T01:41:43.018Z,0.00
2018-08-17T01:42:42.978Z,0.00
2018-08-17T01:43:42.867Z,0.00
2018-08-17T01:44:42.881Z,0.00
2018-08-17T01:45:42.720Z,0.00
2018-08-17T01:46:42.686Z,0.00
2018-08-17T01:47:42.569Z,0.00
2018-08-17T01:48:42.599Z,0.00
2018-08-17T01:49:42.418Z,0.00
2018-08-17T01:50:42.408Z,0.00
2018-08-17T01:51:42.270Z,0.00
2018-08-17T01:52:42.217Z,0.00
2018-08-17T01:53:42.119Z,0.00
2018-08-17T01:54:42.129Z,0.00
2018-08-17T01:55:41.969Z,0.00
2018-08-17T01:56:41.935Z,0.00
2018-08-17T01:57:41.824Z,0.00
2018-08-17T01:58:41.839Z,0.00
2018-08-17T01:59:41.671Z,0.00
2018-08-17T02:00:41.654Z,0.00
2018-08-17T02:01:41.517Z,0.00
2018-08-17T02:02:41.462Z,0.00
2018-08-17T02:03:41.367Z,0.00
2018-08-17T02:04:41.373Z,0.00
2018-08-17T02:05:41.216Z,0.00
2018-08-17T02:06:41.180Z,0.00
2018-08-17T02:07:41.066Z,0.00
2018-08-17T02:08:41.093Z,0.00
2018-08-17T02:09:40.917Z,0.00
2018-08-17T02:10:40.903Z,0.00
2018-08-17T02:11:40.764Z,0.00
2018-08-17T02:12:40.708Z,0.00
2018-08-17T02:13:40.619Z,0.00
2018-08-17T02:14:40.677Z,0.00
2018-08-17T02:15:40.463Z,0.00
2018-08-17T02:16:40.430Z,0.00
2018-08-17T02:17:40.319Z,0.00
2018-08-17T02:18:40.337Z,0.00
2018-08-17T02:19:40.166Z,0.00
2018-08-17T02:20:40.148Z,0.00
2018-08-17T02:21:40.016Z,0.00
2018-08-17T02:22:40.059Z,0.00
2018-08-17T02:23:39.868Z,0.00
2018-08-17T02:24:39.862Z,0.00
2018-08-17T02:25:39.716Z,0.00
2018-08-17T02:26:39.676Z,0.00
2018-08-17T02:27:39.563Z,0.00
2018-08-17T02:28:39.584Z,0.00
2018-08-17T02:29:39.414Z,0.00
2018-08-17T02:30:39.395Z,0.00
2018-08-17T02:31:39.272Z,0.00
2018-08-17T02:32:39.305Z,0.00
2018-08-17T02:33:39.114Z,0.00
2018-08-17T02:34:39.119Z,0.00
2018-08-17T02:35:38.963Z,0.00
2018-08-17T02:36:38.928Z,0.00
2018-08-17T02:37:38.814Z,0.00
2018-08-17T02:38:38.833Z,0.00
2018-08-17T02:39:38.661Z,0.00
2018-08-17T02:40:38.645Z,0.00
2018-08-17T02:41:38.509Z,0.00
2018-08-17T02:42:38.551Z,0.00
2018-08-17T02:43:38.361Z,0.00
2018-08-17T02:44:38.362Z,0.00
2018-08-17T02:45:38.211Z,0.00
2018-08-17T02:46:38.169Z,0.00
2018-08-17T02:47:38.055Z,0.00
2018-08-17T02:48:38.078Z,0.00
2018-08-17T02:49:37.909Z,0.00
2018-08-17T02:50:37.887Z,0.00
2018-08-17T02:51:37.759Z,0.00
2018-08-17T02:52:37.799Z,0.00
2018-08-17T02:53:37.616Z,0.00
2018-08-17T02:54:37.609Z,0.00
2018-08-17T02:55:37.457Z,0.00
2018-08-17T02:56:37.417Z,0.00
2018-08-17T02:57:37.306Z,0.00
2018-08-17T02:58:37.327Z,0.00
2018-08-17T02:59:37.208Z,0.00
2018-08-17T03:00:37.138Z,0.00
2018-08-17T03:01:37.004Z,0.00
2018-08-17T03:02:37.051Z,0.00
2018-08-17T03:03:36.857Z,0.00
2018-08-17T03:04:36.864Z,0.00
2018-08-17T03:05:36.708Z,0.00
2018-08-17T03:06:36.662Z,0.00
2018-08-17T03:07:36.553Z,0.00
2018-08-17T03:08:36.581Z,0.00
2018-08-17T03:09:36.405Z,0.00
2018-08-17T03:10:36.383Z,0.00
2018-08-17T03:11:36.252Z,0.00
2018-08-17T03:12:36.186Z,0.00
2018-08-17T03:13:36.106Z,0.00
2018-08-17T03:14:36.096Z,0.00
2018-08-17T03:15:35.951Z,0.00
2018-08-17T03:16:35.914Z,0.00
2018-08-17T03:17:35.818Z,0.00
2018-08-17T03:18:35.822Z,0.00
2018-08-17T03:19:35.650Z,0.00
2018-08-17T03:20:35.630Z,0.00
2018-08-17T03:21:35.499Z,0.00
2018-08-17T03:22:35.541Z,0.00
2018-08-17T03:23:35.349Z,0.00
2018-08-17T03:24:35.352Z,0.00
2018-08-17T03:25:35.202Z,0.00
2018-08-17T03:26:35.158Z,0.00
2018-08-17T03:27:35.045Z,0.00
2018-08-17T03:28:35.067Z,0.00
2018-08-17T03:29:34.897Z,0.00
2018-08-17T03:30:34.876Z,0.00
2018-08-17T03:31:34.745Z,0.00
2018-08-17T03:32:34.685Z,0.00
2018-08-17T03:33:34.595Z,0.00
2018-08-17T03:34:34.595Z,0.00
2018-08-17T03:35:34.442Z,0.00
2018-08-17T03:36:34.401Z,0.00
2018-08-17T03:37:34.293Z,0.00
2018-08-17T03:38:34.315Z,0.00
2018-08-17T03:39:34.145Z,0.00
2018-08-17T03:40:34.123Z,0.00
2018-08-17T03:41:33.988Z,0.00
2018-08-17T03:42:33.932Z,0.00
2018-08-17T03:43:33.836Z,0.00
2018-08-17T03:44:33.844Z,0.00
2018-08-17T03:45:33.687Z,0.00
2018-08-17T03:46:33.653Z,0.00
2018-08-17T03:47:33.534Z,0.00
2018-08-17T03:48:33.561Z,0.00
2018-08-17T03:49:33.384Z,0.00
2018-08-17T03:50:33.369Z,0.00
2018-08-17T03:51:33.229Z,4.00
2018-08-17T03:52:33.182Z,4.00
2018-08-17T03:53:33.085Z,0.00
2018-08-17T03:54:33.089Z,0.00
2018-08-17T03:55:32.929Z,4.00
2018-08-17T03:56:32.897Z,0.00
2018-08-17T03:57:32.777Z,0.00
2018-08-17T03:58:32.810Z,4.00
2018-08-17T03:59:32.625Z,0.00
2018-08-17T04:00:32.621Z,4.00
2018-08-17T04:01:32.477Z,4.00
2018-08-17T04:02:32.427Z,4.00
2018-08-17T04:03:32.324Z,4.00
2018-08-17T04:04:32.338Z,4.00
2018-08-17T04:05:32.172Z,4.00
2018-08-17T04:06:32.147Z,4.00
2018-08-17T04:07:32.019Z,8.00
2018-08-17T04:08:32.058Z,8.00
2018-08-17T04:09:31.869Z,12.00
2018-08-17T04:10:31.801Z,12.00
2018-08-17T04:11:31.718Z,12.00
2018-08-17T04:12:31.674Z,12.00
2018-08-17T04:13:31.564Z,16.00
2018-08-17T04:14:31.500Z,16.00
2018-08-17T04:15:31.491Z,16.00
2018-08-17T04:16:31.397Z,20.00
2018-08-17T04:17:31.262Z,20.00
2018-08-17T04:18:31.302Z,20.00
2018-08-17T04:19:31.108Z,24.00
2018-08-17T04:20:31.112Z,24.00
2018-08-17T04:21:30.962Z,28.00
2018-08-17T04:22:30.890Z,28.00
2018-08-17T04:23:30.808Z,28.00
2018-08-17T04:24:30.829Z,32.00
2018-08-17T04:25:30.657Z,32.00
2018-08-17T04:26:30.640Z,36.00
2018-08-17T04:27:30.503Z,36.00
2018-08-17T04:28:30.449Z,40.00
2018-08-17T04:29:30.354Z,40.00
2018-08-17T04:30:30.360Z,40.00
2018-08-17T04:31:30.200Z,44.00
2018-08-17T04:32:30.167Z,52.00
2018-08-17T04:33:30.048Z,52.00
2018-08-17T04:34:30.078Z,52.00
2018-08-17T04:35:29.989Z,56.00
2018-08-17T04:36:29.884Z,60.00
2018-08-17T04:37:29.747Z,60.00
2018-08-17T04:38:29.679Z,60.00
2018-08-17T04:39:29.595Z,64.00
2018-08-17T04:40:29.605Z,64.00
2018-08-17T04:41:29.443Z,68.00
2018-08-17T04:42:29.412Z,72.00
2018-08-17T04:43:29.291Z,76.00
2018-08-17T04:44:29.326Z,80.00
2018-08-17T04:45:29.141Z,80.00
2018-08-17T04:46:29.135Z,84.00
2018-08-17T04:47:28.986Z,84.00
2018-08-17T04:48:28.944Z,88.00
2018-08-17T04:49:28.834Z,92.00
2018-08-17T04:50:28.852Z,96.00
2018-08-17T04:51:28.686Z,96.00
2018-08-17T04:52:28.660Z,100.00
2018-08-17T04:53:28.529Z,100.00
2018-08-17T04:54:28.572Z,104.00
2018-08-17T04:55:28.380Z,108.00
2018-08-17T04:56:28.380Z,108.00
2018-08-17T04:57:28.233Z,112.00
2018-08-17T04:58:28.189Z,112.00
2018-08-17T04:59:28.073Z,120.00
2018-08-17T05:00:28.098Z,120.00
2018-08-17T05:01:27.924Z,124.00
2018-08-17T05:02:27.909Z,128.00
2018-08-17T05:03:27.795Z,128.00
2018-08-17T05:04:27.718Z,132.00
2018-08-17T05:05:27.624Z,132.00
2018-08-17T05:06:27.627Z,136.00
2018-08-17T05:07:27.467Z,140.00
2018-08-17T05:08:27.434Z,140.00
2018-08-17T05:09:27.313Z,144.00
2018-08-17T05:10:27.347Z,148.00
2018-08-17T05:11:27.163Z,152.00
2018-08-17T05:12:27.155Z,152.00
2018-08-17T05:13:27.021Z,156.00
2018-08-17T05:14:26.963Z,156.00
2018-08-17T05:15:26.862Z,160.00
2018-08-17T05:16:26.874Z,160.00
2018-08-17T05:17:26.720Z,164.00
2018-08-17T05:18:26.687Z,168.00
2018-08-17T05:19:26.555Z,164.00
2018-08-17T05:20:26.594Z,168.00
2018-08-17T05:21:26.425Z,176.00
2018-08-17T05:22:26.402Z,176.00
2018-08-17T05:23:26.326Z,176.00
2018-08-17T05:24:26.217Z,176.00
2018-08-17T05:25:26.108Z,180.00
2018-08-17T05:26:26.121Z,184.00
2018-08-17T05:27:25.951Z,184.00
2018-08-17T05:28:25.929Z,188.00
2018-08-17T05:29:25.798Z,188.00
2018-08-17T05:30:25.740Z,188.00
2018-08-17T05:31:25.648Z,196.00
2018-08-17T05:32:25.648Z,196.00
2018-08-17T05:33:25.498Z,196.00
2018-08-17T05:34:25.461Z,200.00
2018-08-17T05:35:25.348Z,204.00
2018-08-17T05:36:25.371Z,204.00
2018-08-17T05:37:25.193Z,212.00
2018-08-17T05:38:25.335Z,212.00
2018-08-17T05:39:25.042Z,216.00
2018-08-17T05:40:24.986Z,220.00
2018-08-17T05:41:24.890Z,220.00
2018-08-17T05:42:25.108Z,224.00
2018-08-17T05:43:24.737Z,224.00
2018-08-17T05:44:24.709Z,228.00
2018-08-17T05:45:24.589Z,228.00
2018-08-17T05:46:24.620Z,228.00
2018-08-17T05:47:24.441Z,232.00
2018-08-17T05:48:24.425Z,236.00
2018-08-17T05:49:24.290Z,240.00
2018-08-17T05:50:24.231Z,244.00
2018-08-17T05:51:24.134Z,252.00
2018-08-17T05:52:24.146Z,252.00
2018-08-17T05:53:23.986Z,260.00
2018-08-17T05:54:23.955Z,264.00
2018-08-17T05:55:23.832Z,264.00
2018-08-17T05:56:23.868Z,268.00
2018-08-17T05:57:23.684Z,272.00
2018-08-17T05:58:23.673Z,276.00
2018-08-17T05:59:23.535Z,280.00
2018-08-17T06:00:23.481Z,280.00
2018-08-17T06:01:23.383Z,284.00
2018-08-17T06:02:23.389Z,288.00
2018-08-17T06:03:23.232Z,292.00
2018-08-17T06:04:23.201Z,292.00
2018-08-17T06:05:23.080Z,292.00
2018-08-17T06:06:23.112Z,296.00
2018-08-17T06:07:22.928Z,304.00
2018-08-17T06:08:22.924Z,304.00
2018-08-17T06:09:22.788Z,308.00
2018-08-17T06:10:22.728Z,308.00
2018-08-17T06:11:22.819Z,312.00
2018-08-17T06:12:22.637Z,316.00
2018-08-17T06:13:22.480Z,316.00
2018-08-17T06:14:22.448Z,316.00
2018-08-17T06:15:22.329Z,320.00
2018-08-17T06:16:22.358Z,320.00
2018-08-17T06:17:22.177Z,324.00
2018-08-17T06:18:22.168Z,328.00
2018-08-17T06:19:22.157Z,332.00
2018-08-17T06:20:21.977Z,332.00
2018-08-17T06:21:21.877Z,340.00
2018-08-17T06:22:21.888Z,344.00
2018-08-17T06:23:21.726Z,344.00
2018-08-17T06:24:21.699Z,348.00
2018-08-17T06:25:21.580Z,356.00
2018-08-17T06:26:21.607Z,356.00
2018-08-17T06:27:21.426Z,364.00
2018-08-17T06:28:21.410Z,368.00
2018-08-17T06:29:21.279Z,372.00
2018-08-17T06:30:21.224Z,376.00
2018-08-17T06:31:21.125Z,376.00
2018-08-17T06:32:21.134Z,376.00
2018-08-17T06:33:20.979Z,388.00
2018-08-17T06:34:20.943Z,392.00
2018-08-17T06:35:20.832Z,396.00
2018-08-17T06:36:20.855Z,404.00
2018-08-17T06:37:20.715Z,408.00
2018-08-17T06:38:20.661Z,412.00
2018-08-17T06:39:20.527Z,416.00
2018-08-17T06:40:20.572Z,424.00
2018-08-17T06:41:20.382Z,428.00
2018-08-17T06:42:20.377Z,432.00
2018-08-17T06:43:20.234Z,436.00
2018-08-17T06:44:21.215Z,444.00
2018-08-17T06:45:20.085Z,448.00
2018-08-17T06:46:20.100Z,448.00
2018-08-17T06:47:19.929Z,452.00
2018-08-17T06:48:19.908Z,456.00
2018-08-17T06:49:19.790Z,456.00
2018-08-17T06:50:19.820Z,464.00
2018-08-17T06:51:19.636Z,464.00
2018-08-17T06:52:19.630Z,464.00
2018-08-17T06:53:19.504Z,464.00
2018-08-17T06:54:19.432Z,468.00
2018-08-17T06:55:19.345Z,468.00
2018-08-17T06:56:19.347Z,468.00
2018-08-17T06:57:19.270Z,476.00
2018-08-17T06:58:19.154Z,480.00
2018-08-17T06:59:19.045Z,488.00
2018-08-17T07:00:19.071Z,496.00
2018-08-17T07:01:18.898Z,500.00
2018-08-17T07:02:18.878Z,520.00
2018-08-17T07:03:18.748Z,528.00
2018-08-17T07:04:18.788Z,532.00
2018-08-17T07:05:18.605Z,540.00
2018-08-17T07:06:18.595Z,552.00
2018-08-17T07:07:18.463Z,556.00
2018-08-17T07:08:18.406Z,568.00
2018-08-17T07:09:18.475Z,576.00
2018-08-17T07:10:18.313Z,584.00
2018-08-17T07:11:18.162Z,596.00
2018-08-17T07:12:18.124Z,600.00
2018-08-17T07:13:18.016Z,624.00
2018-08-17T07:14:18.036Z,656.00
2018-08-17T07:15:17.868Z,680.00
2018-08-17T07:16:17.848Z,696.00
2018-08-17T07:17:17.725Z,720.00
2018-08-17T07:18:17.759Z,744.00
2018-08-17T07:19:17.577Z,772.00
2018-08-17T07:20:17.505Z,792.00
2018-08-17T07:21:18.596Z,820.00
2018-08-17T07:22:17.355Z,828.00
2018-08-17T07:23:18.403Z,896.00
2018-08-17T07:24:17.210Z,928.00
2018-08-17T07:25:19.333Z,980.00
2018-08-17T07:26:17.064Z,1028.00
2018-08-17T07:27:17.201Z,1072.00
2018-08-17T07:28:17.055Z,1120.00
2018-08-17T07:29:16.848Z,1172.00
2018-08-17T07:30:16.914Z,1228.00
2018-08-17T07:31:16.703Z,1288.00
2018-08-17T07:32:16.825Z,1340.00
2018-08-17T07:33:16.558Z,1400.00
2018-08-17T07:34:16.635Z,1428.00
2018-08-17T07:35:16.418Z,1444.00
2018-08-17T07:36:16.544Z,1424.00
2018-08-17T07:37:16.270Z,1544.00
2018-08-17T07:38:16.359Z,1624.00
2018-08-17T07:39:16.132Z,1708.00
2018-08-17T07:40:16.165Z,1760.00
2018-08-17T07:41:15.984Z,1816.00
2018-08-17T07:42:16.075Z,1840.00
2018-08-17T07:43:15.838Z,1908.00
2018-08-17T07:44:15.768Z,1928.00
2018-08-17T07:45:15.890Z,1912.00
2018-08-17T07:46:15.628Z,2008.00
2018-08-17T07:47:15.704Z,1992.00
2018-08-17T07:48:15.653Z,2028.00
2018-08-17T07:49:15.611Z,1988.00
2018-08-17T07:50:15.346Z,2128.00
2018-08-17T07:51:15.420Z,2048.00
2018-08-17T07:52:15.202Z,2000.00
2018-08-17T07:53:15.126Z,2308.00
2018-08-17T07:54:15.239Z,2324.00
2018-08-17T07:55:14.986Z,2180.00
2018-08-17T07:56:15.048Z,2248.00
2018-08-17T07:57:14.847Z,2444.00
2018-08-17T07:58:14.958Z,2500.00
2018-08-17T07:59:14.703Z,2520.00
2018-08-17T08:00:14.767Z,2540.00
2018-08-17T08:01:14.563Z,2560.00
2018-08-17T08:02:14.679Z,2584.00
2018-08-17T08:03:14.421Z,2612.00
2018-08-17T08:04:14.487Z,2628.00
2018-08-17T08:05:14.284Z,2648.00
2018-08-17T08:06:14.213Z,2664.00
2018-08-17T08:07:14.306Z,2688.00
2018-08-17T08:08:14.069Z,2704.00
2018-08-17T08:09:14.113Z,2724.00
2018-08-17T08:10:13.933Z,2740.00
2018-08-17T08:11:14.047Z,2756.00
2018-08-17T08:12:13.794Z,2772.00
2018-08-17T08:13:13.935Z,2792.00
2018-08-17T08:14:13.656Z,2804.00
2018-08-17T08:15:13.746Z,2824.00
2018-08-17T08:16:13.522Z,2840.00
2018-08-17T08:17:13.453Z,2856.00
2018-08-17T08:18:13.460Z,2868.00
2018-08-17T08:19:13.307Z,2892.00
2018-08-17T08:20:13.432Z,2052.00
2018-08-17T08:21:13.173Z,2924.00
2018-08-17T08:22:13.179Z,2920.00
2018-08-17T08:23:13.034Z,2928.00
2018-08-17T08:24:13.093Z,2944.00
2018-08-17T08:25:12.899Z,2952.00
2018-08-17T08:26:12.829Z,2956.00
2018-08-17T08:27:12.760Z,2972.00
2018-08-17T08:28:12.812Z,2960.00
2018-08-17T08:29:12.625Z,2932.00
2018-08-17T08:30:12.620Z,2952.00
2018-08-17T08:31:12.484Z,2968.00
2018-08-17T08:32:12.535Z,2984.00
2018-08-17T08:33:12.351Z,3000.00
2018-08-17T08:34:12.343Z,3012.00
2018-08-17T08:35:12.212Z,3020.00
2018-08-17T08:36:12.252Z,3028.00
2018-08-17T08:37:12.081Z,3040.00
2018-08-17T08:38:12.060Z,3048.00
2018-08-17T08:39:11.945Z,3052.00
2018-08-17T08:40:11.975Z,3056.00
2018-08-17T08:41:11.812Z,3052.00
2018-08-17T08:42:11.783Z,3048.00
2018-08-17T08:43:11.672Z,3048.00
2018-08-17T08:44:11.695Z,3076.00
2018-08-17T08:45:11.538Z,3076.00
2018-08-17T08:46:11.605Z,3072.00
2018-08-17T08:47:11.407Z,3060.00
2018-08-17T08:48:11.413Z,3092.00
2018-08-17T08:49:11.272Z,3056.00
2018-08-17T08:50:11.349Z,3104.00
2018-08-17T08:51:11.140Z,3112.00
2018-08-17T08:52:11.884Z,3124.00
2018-08-17T08:53:11.004Z,3120.00
2018-08-17T08:54:11.043Z,3120.00
2018-08-17T08:55:10.870Z,3108.00
2018-08-17T08:56:10.861Z,3056.00
2018-08-17T08:57:10.737Z,3100.00
2018-08-17T08:58:10.765Z,3044.00
2018-08-17T08:59:10.607Z,3088.00
2018-08-17T09:00:10.582Z,3108.00
2018-08-17T09:01:10.468Z,3124.00
2018-08-17T09:02:10.487Z,3112.00
2018-08-17T09:03:10.342Z,3112.00
2018-08-17T09:04:10.277Z,3108.00
2018-08-17T09:05:10.217Z,3104.00
2018-08-17T09:06:10.210Z,3108.00
2018-08-17T09:07:10.073Z,3108.00
2018-08-17T09:08:10.130Z,3116.00
2018-08-17T09:09:09.943Z,3116.00
2018-08-17T09:10:09.907Z,3120.00
2018-08-17T09:11:09.810Z,3120.00
2018-08-17T09:12:09.814Z,3124.00
2018-08-17T09:13:09.691Z,3128.00
2018-08-17T09:14:09.727Z,3048.00
2018-08-17T09:15:09.546Z,3120.00
2018-08-17T09:16:09.536Z,3108.00
2018-08-17T09:17:09.416Z,3108.00
2018-08-17T09:18:09.446Z,3100.00
2018-08-17T09:19:09.284Z,3100.00
2018-08-17T09:20:09.297Z,3100.00
2018-08-17T09:21:09.155Z,3104.00
2018-08-17T09:22:09.167Z,3100.00
2018-08-17T09:23:09.018Z,3104.00
2018-08-17T09:24:08.974Z,3100.00
2018-08-17T09:25:08.890Z,3096.00
2018-08-17T09:26:08.891Z,3100.00
2018-08-17T09:27:08.763Z,3092.00
2018-08-17T09:28:08.795Z,3084.00
2018-08-17T09:29:08.648Z,3068.00
2018-08-17T09:30:08.664Z,3072.00
2018-08-17T09:31:08.504Z,3088.00
2018-08-17T09:32:08.518Z,3072.00
2018-08-17T09:33:08.374Z,3056.00
2018-08-17T09:34:08.324Z,3044.00
2018-08-17T09:35:08.242Z,3032.00
2018-08-17T09:36:08.357Z,2988.00
2018-08-17T09:37:08.112Z,2972.00
2018-08-17T09:38:08.147Z,3012.00
2018-08-17T09:39:07.983Z,2988.00
2018-08-17T09:40:07.955Z,3008.00
2018-08-17T09:41:07.856Z,3024.00
2018-08-17T09:42:07.878Z,2996.00
2018-08-17T09:43:07.726Z,3000.00
2018-08-17T09:44:07.677Z,2996.00
2018-08-17T09:45:07.666Z,2980.00
2018-08-17T09:46:07.588Z,2972.00
2018-08-17T09:47:07.471Z,2968.00
2018-08-17T09:48:07.498Z,2920.00
2018-08-17T09:49:07.340Z,2960.00
2018-08-17T09:50:07.307Z,2936.00
2018-08-17T09:51:07.207Z,2956.00
2018-08-17T09:52:07.217Z,2948.00
2018-08-17T09:53:07.080Z,2944.00
2018-08-17T09:54:07.126Z,2928.00
2018-08-17T09:55:06.952Z,2924.00
2018-08-17T09:56:06.938Z,2924.00
2018-08-17T09:57:06.826Z,2772.00
2018-08-17T09:58:06.846Z,2420.00
2018-08-17T09:59:06.696Z,2668.00
2018-08-17T10:00:06.655Z,2424.00
2018-08-17T10:01:06.565Z,2616.00
2018-08-17T10:02:06.571Z,2892.00
2018-08-17T10:03:06.439Z,2888.00
2018-08-17T10:04:06.519Z,2904.00
2018-08-17T10:05:06.309Z,2892.00
2018-08-17T10:06:06.287Z,2908.00
2018-08-17T10:07:06.180Z,2920.00
2018-08-17T10:08:06.203Z,2708.00
2018-08-17T10:09:06.054Z,2568.00
2018-08-17T10:10:06.009Z,2692.00
2018-08-17T10:11:05.925Z,2888.00
2018-08-17T10:12:05.928Z,2880.00
2018-08-17T10:13:05.802Z,2876.00
2018-08-17T10:14:05.835Z,2852.00
2018-08-17T10:15:05.666Z,2552.00
2018-08-17T10:16:05.642Z,2892.00
2018-08-17T10:17:05.543Z,2872.00
2018-08-17T10:18:05.552Z,2832.00
2018-08-17T10:19:05.415Z,2736.00
2018-08-17T10:20:05.464Z,2644.00
2018-08-17T10:21:05.403Z,2412.00
2018-08-17T10:22:05.547Z,2332.00
2018-08-17T10:23:05.159Z,2392.00
2018-08-17T10:24:05.183Z,2240.00
2018-08-17T10:25:05.040Z,2296.00
2018-08-17T10:26:04.994Z,2204.00
2018-08-17T10:27:04.906Z,2280.00
2018-08-17T10:28:04.905Z,2092.00
2018-08-17T10:29:04.778Z,2360.00
2018-08-17T10:30:04.815Z,2464.00
2018-08-17T10:31:04.650Z,2312.00
2018-08-17T10:32:04.623Z,2240.00
2018-08-17T10:33:04.524Z,2392.00
2018-08-17T10:34:04.566Z,2332.00
2018-08-17T10:35:04.401Z,2352.00
2018-08-17T10:36:04.443Z,2324.00
2018-08-17T10:37:04.269Z,2400.00
2018-08-17T10:38:04.253Z,2484.00
2018-08-17T10:39:04.143Z,2472.00
2018-08-17T10:40:04.158Z,2496.00
2018-08-17T10:41:04.016Z,2536.00
2018-08-17T10:42:03.971Z,2516.00
2018-08-17T10:43:03.890Z,2576.00
2018-08-17T10:44:03.826Z,2592.00
2018-08-17T10:45:03.759Z,2564.00
2018-08-17T10:46:03.796Z,2500.00
2018-08-17T10:47:03.635Z,2548.00
2018-08-17T10:48:03.604Z,2552.00
2018-08-17T10:49:03.518Z,2564.00
2018-08-17T10:50:03.513Z,2544.00
2018-08-17T10:51:03.381Z,2524.00
2018-08-17T10:52:03.427Z,2472.00
2018-08-17T10:53:03.258Z,2456.00
2018-08-17T10:54:03.231Z,2480.00
2018-08-17T10:55:03.127Z,2476.00
2018-08-17T10:56:03.145Z,2488.00
2018-08-17T10:57:03.006Z,2492.00
2018-08-17T10:58:03.055Z,2476.00
2018-08-17T10:59:02.875Z,2484.00
2018-08-17T11:00:02.865Z,2484.00
2018-08-17T11:01:02.751Z,2464.00
2018-08-17T11:02:02.776Z,2440.00
2018-08-17T11:03:02.625Z,2456.00
2018-08-17T11:04:02.584Z,2312.00
2018-08-17T11:05:02.499Z,2088.00
2018-08-17T11:06:02.494Z,2172.00
2018-08-17T11:07:02.370Z,1668.00
2018-08-17T11:08:02.411Z,2136.00
2018-08-17T11:09:02.247Z,2340.00
2018-08-17T11:10:02.216Z,2404.00
2018-08-17T11:11:02.170Z,2400.00
2018-08-17T11:12:02.127Z,2396.00
2018-08-17T11:13:01.994Z,2372.00
2018-08-17T11:14:02.040Z,2340.00
2018-08-17T11:15:01.874Z,2344.00
2018-08-17T11:16:01.849Z,2336.00
2018-08-17T11:17:01.833Z,2328.00
2018-08-17T11:18:01.760Z,2272.00
2018-08-17T11:19:01.617Z,2284.00
2018-08-17T11:20:01.668Z,2232.00
2018-08-17T11:21:01.493Z,784.00
2018-08-17T11:22:01.478Z,2248.00
2018-08-17T11:23:01.465Z,2172.00
2018-08-17T11:24:01.390Z,2188.00
2018-08-17T11:25:01.261Z,2156.00
2018-08-17T11:26:01.197Z,2208.00
2018-08-17T11:27:01.115Z,2176.00
2018-08-17T11:28:01.109Z,2224.00
2018-08-17T11:29:00.996Z,2208.00
2018-08-17T11:30:01.021Z,2004.00
2018-08-17T11:31:00.866Z,2132.00
2018-08-17T11:32:00.830Z,2144.00
2018-08-17T11:33:00.744Z,2164.00
2018-08-17T11:34:00.741Z,2152.00
2018-08-17T11:35:00.614Z,2120.00
2018-08-17T11:36:00.662Z,2148.00
2018-08-17T11:37:00.490Z,2152.00
2018-08-17T11:38:00.461Z,2148.00
2018-08-17T11:39:00.368Z,2148.00
2018-08-17T11:40:00.373Z,2132.00
2018-08-17T11:41:00.242Z,2144.00
2018-08-17T11:42:00.277Z,2124.00
2018-08-17T11:43:00.116Z,2128.00
2018-08-17T11:44:00.090Z,1972.00
2018-08-17T11:44:59.996Z,712.00
2018-08-17T11:46:00.000Z,660.00
2018-08-17T11:46:59.867Z,640.00
2018-08-17T11:47:59.916Z,632.00
2018-08-17T11:48:59.743Z,636.00
2018-08-17T11:49:59.720Z,2180.00
2018-08-17T11:50:59.620Z,2200.00
2018-08-17T11:51:59.630Z,2060.00
2018-08-17T11:52:59.492Z,1892.00
2018-08-17T11:53:59.596Z,1596.00
2018-08-17T11:54:59.367Z,2120.00
2018-08-17T11:55:59.355Z,2212.00
2018-08-17T11:56:59.244Z,2204.00
2018-08-17T11:57:59.264Z,2216.00
2018-08-17T11:58:59.116Z,2196.00
2018-08-17T11:59:59.174Z,720.00
2018-08-17T12:00:59.036Z,800.00
2018-08-17T12:01:59.079Z,672.00
2018-08-17T12:02:58.868Z,652.00
2018-08-17T12:03:58.893Z,664.00
2018-08-17T12:04:58.744Z,660.00
2018-08-17T12:05:58.703Z,628.00
2018-08-17T12:06:58.619Z,668.00
2018-08-17T12:07:58.635Z,2012.00
2018-08-17T12:08:58.495Z,2180.00
2018-08-17T12:09:58.525Z,2192.00
2018-08-17T12:10:58.369Z,2176.00
2018-08-17T12:11:58.338Z,2160.00
2018-08-17T12:12:58.248Z,2136.00
2018-08-17T12:13:58.244Z,2128.00
2018-08-17T12:14:58.120Z,2116.00
2018-08-17T12:15:58.154Z,2112.00
2018-08-17T12:16:57.995Z,2080.00
2018-08-17T12:17:57.971Z,2116.00
2018-08-17T12:18:57.871Z,2116.00
2018-08-17T12:19:57.877Z,2104.00
2018-08-17T12:20:57.749Z,2088.00
2018-08-17T12:21:57.789Z,2100.00
2018-08-17T12:22:57.621Z,2108.00
2018-08-17T12:23:57.594Z,2096.00
2018-08-17T12:24:57.506Z,2088.00
2018-08-17T12:25:57.511Z,2104.00
2018-08-17T12:26:57.372Z,2112.00
2018-08-17T12:27:57.418Z,2120.00
2018-08-17T12:28:57.249Z,2120.00
2018-08-17T12:29:57.226Z,2108.00
2018-08-17T12:30:57.123Z,2104.00
2018-08-17T12:31:57.141Z,2108.00
2018-08-17T12:32:57.000Z,2096.00
2018-08-17T12:33:57.047Z,2092.00
2018-08-17T12:34:56.874Z,2092.00
2018-08-17T12:35:56.856Z,2100.00